Time;durP1;ratioP1;P1;durP2;ratioP2;P2;SDS_P1;SDS_P2;PMS_P1;PMS_P2;Temp;Humidity;BMP_temperature;BMP_pressure;BME280_temperature;BME280_humidity;BME280_pressure;Samples;Min_cycle;Max_cycle;Signal;HPM_P1;HPM_P2
2021/05/19 00:00:56;;;;;;;29.42;21.25;;;8.20;94.00;;;;;;4995742;28;20109;-79
2021/05/19 00:03:22;;;;;;;19.45;16.00;;;8.10;94.10;;;;;;4994499;28;20112;-79
2021/05/19 00:05:48;;;;;;;22.88;17.70;;;8.20;94.30;;;;;;4999042;28;20042;-79
2021/05/19 00:08:13;;;;;;;27.52;20.80;;;8.20;94.30;;;;;;4979276;28;20037;-79
2021/05/19 00:10:39;;;;;;;25.45;20.90;;;8.20;94.20;;;;;;5001232;28;20034;-79
2021/05/19 00:13:05;;;;;;;22.92;16.70;;;8.10;94.20;;;;;;4984818;28;20478;-79
2021/05/19 00:15:30;;;;;;;18.60;14.48;;;8.20;94.70;;;;;;4968478;28;20037;-79
2021/05/19 00:18:00;;;;;;;20.58;15.68;;;8.20;94.60;;;;;;5000082;28;20026;-79
2021/05/19 00:20:25;;;;;;;17.67;14.82;;;8.20;94.60;;;;;;5000644;28;20516;-78
2021/05/19 00:22:51;;;;;;;23.50;18.00;;;8.20;94.40;;;;;;4999277;28;20030;-79
2021/05/19 00:25:17;;;;;;;24.88;19.38;;;8.20;94.30;;;;;;4985627;28;20034;-79
2021/05/19 00:27:43;;;;;;;25.88;19.42;;;8.00;94.00;;;;;;4985421;28;20095;-79
2021/05/19 00:30:14;;;;;;;20.40;16.88;;;7.90;94.30;;;;;;4998581;28;20026;-77
2021/05/19 00:32:40;;;;;;;18.17;14.48;;;8.00;94.60;;;;;;4974011;28;20058;-77
2021/05/19 00:35:06;;;;;;;20.75;16.67;;;8.00;94.40;;;;;;5000119;28;20054;-77
2021/05/19 00:37:31;;;;;;;23.70;16.50;;;8.00;94.60;;;;;;4986925;28;20976;-77
2021/05/19 00:39:57;;;;;;;23.38;17.67;;;8.00;94.60;;;;;;4998361;28;20030;-77
2021/05/19 00:42:22;;;;;;;25.63;20.27;;;8.00;94.70;;;;;;4985923;28;20134;-77
2021/05/19 00:44:48;;;;;;;17.77;14.68;;;7.90;94.20;;;;;;4998039;28;20421;-77
2021/05/19 00:47:32;;;;;;;22.98;17.85;;;7.90;94.60;;;;;;4982339;28;20023;-77
2021/05/19 00:49:58;;;;;;;19.67;15.45;;;7.90;94.50;;;;;;4980295;28;20034;-77
2021/05/19 00:52:23;;;;;;;17.30;13.23;;;7.90;94.90;;;;;;4981527;28;20072;-77
2021/05/19 00:54:49;;;;;;;22.08;16.02;;;8.00;94.80;;;;;;4966117;28;20044;-77
2021/05/19 00:57:14;;;;;;;19.65;15.55;;;8.10;94.60;;;;;;5001299;28;20551;-77
2021/05/19 00:59:40;;;;;;;20.55;15.30;;;8.10;94.70;;;;;;4971757;28;20065;-77
2021/05/19 01:02:05;;;;;;;20.65;16.48;;;8.00;94.60;;;;;;4969643;28;20038;-77
2021/05/19 01:04:31;;;;;;;22.13;16.50;;;8.00;94.80;;;;;;4971490;28;20049;-77
2021/05/19 01:07:00;;;;;;;21.73;16.35;;;7.90;94.80;;;;;;4981578;28;20401;-77
2021/05/19 01:09:35;;;;;;;27.45;20.35;;;7.90;95.00;;;;;;4964749;28;20557;-77
2021/05/19 01:12:02;;;;;;;28.83;21.38;;;7.90;95.00;;;;;;4978929;28;20048;-77
2021/05/19 01:14:27;;;;;;;28.75;19.23;;;7.90;94.90;;;;;;4969632;28;20035;-77
2021/05/19 01:16:53;;;;;;;25.17;18.67;;;7.80;94.80;;;;;;4982108;28;20026;-77
2021/05/19 01:19:20;;;;;;;29.63;21.67;;;7.70;94.80;;;;;;4995360;28;20038;-77
2021/05/19 01:21:50;;;;;;;32.80;23.58;;;7.70;94.80;;;;;;4981458;28;20121;-77
2021/05/19 01:24:16;;;;;;;25.85;18.65;;;7.60;94.70;;;;;;5002212;28;20035;-77
2021/05/19 01:26:41;;;;;;;28.02;19.08;;;7.60;94.90;;;;;;5000481;28;20030;-77
2021/05/19 01:29:07;;;;;;;28.83;21.05;;;7.70;95.10;;;;;;4981421;28;20035;-77
2021/05/19 01:31:33;;;;;;;29.50;20.50;;;7.70;94.80;;;;;;4983704;28;20088;-77
2021/05/19 01:33:59;;;;;;;26.13;20.02;;;7.70;95.10;;;;;;4995877;28;20069;-76
2021/05/19 01:36:24;;;;;;;31.52;21.60;;;7.70;95.00;;;;;;4997631;28;20486;-77
2021/05/19 01:38:50;;;;;;;31.70;23.63;;;7.60;94.30;;;;;;4981263;28;20419;-77
2021/05/19 01:41:15;;;;;;;34.38;23.70;;;7.40;94.40;;;;;;4982741;28;20068;-77
2021/05/19 01:43:41;;;;;;;38.95;23.30;;;7.40;94.90;;;;;;4982468;28;20297;-77
2021/05/19 01:46:07;;;;;;;29.10;20.67;;;7.40;94.90;;;;;;4966133;28;20038;-77
2021/05/19 01:48:33;;;;;;;34.00;23.77;;;7.40;95.20;;;;;;4979009;28;20038;-77
2021/05/19 01:50:59;;;;;;;37.83;24.85;;;7.50;95.30;;;;;;4992482;28;20042;-77
2021/05/19 01:53:25;;;;;;;30.05;20.70;;;7.50;95.20;;;;;;4981907;28;20213;-77
2021/05/19 01:55:51;;;;;;;29.30;21.60;;;7.50;95.20;;;;;;4964998;28;20220;-77
2021/05/19 01:58:18;;;;;;;26.75;18.40;;;7.50;95.20;;;;;;4980432;28;20038;-76
2021/05/19 02:00:43;;;;;;;25.10;17.95;;;7.50;95.00;;;;;;4985311;28;20034;-77
2021/05/19 02:03:09;;;;;;;32.75;23.65;;;7.50;94.90;;;;;;4998931;28;20552;-77
2021/05/19 02:05:35;;;;;;;35.33;24.45;;;7.30;94.60;;;;;;4983752;28;20049;-76
2021/05/19 02:08:03;;;;;;;28.58;20.70;;;7.20;95.10;;;;;;4978867;28;20022;-77
2021/05/19 02:10:28;;;;;;;29.42;20.05;;;7.20;95.10;;;;;;4987062;28;20521;-77
2021/05/19 02:12:58;;;;;;;30.88;21.10;;;7.20;95.00;;;;;;4964236;28;20142;-77
2021/05/19 02:15:23;;;;;;;33.85;23.05;;;7.20;95.30;;;;;;4991698;28;20516;-77
2021/05/19 02:17:49;;;;;;;37.55;25.00;;;7.30;95.40;;;;;;4966434;28;20026;-76
2021/05/19 02:20:16;;;;;;;35.30;25.15;;;7.10;95.00;;;;;;4997350;28;20096;-77
2021/05/19 02:22:42;;;;;;;35.28;25.67;;;7.20;95.60;;;;;;4980947;28;20038;-76
2021/05/19 02:25:09;;;;;;;32.17;21.85;;;7.10;95.40;;;;;;4995912;28;20026;-77
2021/05/19 02:27:34;;;;;;;39.53;25.33;;;7.10;95.70;;;;;;4961087;28;20410;-76
2021/05/19 02:30:00;;;;;;;37.75;25.63;;;7.10;95.30;;;;;;4992563;28;20030;-76
2021/05/19 02:32:26;;;;;;;38.88;24.70;;;6.80;95.10;;;;;;4980059;28;20089;-76
2021/05/19 02:34:54;;;;;;;45.30;28.70;;;6.80;95.60;;;;;;4980667;28;20484;-77
2021/05/19 02:37:20;;;;;;;45.20;29.17;;;6.80;95.10;;;;;;4982162;28;20042;-76
2021/05/19 02:39:45;;;;;;;40.10;26.52;;;6.70;95.30;;;;;;4976769;28;20178;-76
2021/05/19 02:42:11;;;;;;;33.08;23.77;;;6.70;95.70;;;;;;4980659;28;20057;-76
2021/05/19 02:44:36;;;;;;;37.17;24.13;;;6.70;95.80;;;;;;4981399;28;20563;-77
2021/05/19 02:47:02;;;;;;;45.78;29.10;;;6.80;95.80;;;;;;4965277;28;20033;-77
2021/05/19 02:49:28;;;;;;;36.17;24.58;;;6.60;95.60;;;;;;4976038;28;20041;-76
2021/05/19 02:51:53;;;;;;;38.53;25.75;;;6.60;96.00;;;;;;4975876;28;20034;-78
2021/05/19 02:54:19;;;;;;;45.55;29.42;;;6.90;96.00;;;;;;4980667;28;20498;-76
2021/05/19 02:56:44;;;;;;;44.60;29.90;;;6.80;95.50;;;;;;4987427;28;20042;-76
2021/05/19 02:59:10;;;;;;;36.03;24.17;;;6.60;95.70;;;;;;4991622;28;25554;-76
2021/05/19 03:01:35;;;;;;;36.45;24.42;;;6.70;95.70;;;;;;4994811;28;20041;-76
2021/05/19 03:04:01;;;;;;;34.05;22.17;;;6.70;95.20;;;;;;4996963;28;20092;-77
2021/05/19 03:06:27;;;;;;;42.45;28.42;;;6.80;95.70;;;;;;4976963;28;20031;-77
2021/05/19 03:08:52;;;;;;;39.00;26.48;;;6.70;95.20;;;;;;4966369;28;20501;-76
2021/05/19 03:11:18;;;;;;;37.72;25.33;;;6.70;95.50;;;;;;4980656;28;20049;-76
2021/05/19 03:13:44;;;;;;;34.58;24.20;;;6.60;95.70;;;;;;4995835;28;20034;-76
2021/05/19 03:16:09;;;;;;;33.25;22.77;;;6.70;95.80;;;;;;4980737;28;20030;-78
2021/05/19 03:18:35;;;;;;;33.67;22.33;;;6.80;95.50;;;;;;4995552;28;20034;-78
2021/05/19 03:21:01;;;;;;;33.67;19.55;;;6.80;95.40;;;;;;4979924;28;20092;-79
2021/05/19 03:23:27;;;;;;;30.58;20.65;;;7.00;95.30;;;;;;4967793;28;20538;-78
2021/05/19 03:25:53;;;;;;;34.35;22.25;;;7.10;95.20;;;;;;4991595;28;20022;-76
2021/05/19 03:28:18;;;;;;;29.70;20.33;;;7.00;95.40;;;;;;4973086;28;20080;-77
2021/05/19 03:30:44;;;;;;;29.40;19.63;;;6.90;95.70;;;;;;4964425;28;20026;-77
2021/05/19 03:33:09;;;;;;;35.85;24.40;;;6.90;95.60;;;;;;4976996;28;20030;-76
2021/05/19 03:35:35;;;;;;;29.52;19.63;;;6.90;95.50;;;;;;4967520;28;20054;-76
2021/05/19 03:38:00;;;;;;;29.73;20.90;;;7.00;95.30;;;;;;4979136;28;20436;-76
2021/05/19 03:40:26;;;;;;;28.45;19.92;;;7.00;95.50;;;;;;4994306;28;20026;-77
2021/05/19 03:42:52;;;;;;;26.80;20.20;;;7.10;95.50;;;;;;4980000;28;20037;-76
2021/05/19 03:45:19;;;;;;;36.42;25.10;;;7.40;95.10;;;;;;4996084;28;20457;-76
2021/05/19 03:47:46;;;;;;;31.30;22.73;;;6.90;94.80;;;;;;4979464;28;20061;-77
2021/05/19 03:50:12;;;;;;;29.08;20.88;;;7.20;95.50;;;;;;4979120;28;20449;-76
2021/05/19 03:52:37;;;;;;;31.85;22.98;;;7.20;95.80;;;;;;4995494;28;20059;-76
2021/05/19 03:55:04;;;;;;;31.80;22.00;;;7.20;95.40;;;;;;4976433;28;20161;-78
2021/05/19 03:57:29;;;;;;;39.13;27.30;;;7.10;95.50;;;;;;4994286;28;20125;-78
2021/05/19 03:59:55;;;;;;;39.08;24.80;;;7.00;95.40;;;;;;4962026;28;20545;-76
2021/05/19 04:02:20;;;;;;;42.08;27.77;;;6.90;96.00;;;;;;4976590;28;20506;-76
2021/05/19 04:04:46;;;;;;;42.75;27.40;;;6.90;95.60;;;;;;4973937;28;20077;-76
2021/05/19 04:07:12;;;;;;;35.47;24.25;;;6.90;96.00;;;;;;4974794;28;20049;-76
2021/05/19 04:09:37;;;;;;;30.33;22.45;;;7.00;96.10;;;;;;4979262;28;20682;-76
2021/05/19 04:12:03;;;;;;;28.83;20.25;;;7.00;95.70;;;;;;4959787;28;20084;-77
2021/05/19 04:14:29;;;;;;;39.88;25.42;;;7.10;95.80;;;;;;4984488;28;20092;-77
2021/05/19 04:16:54;;;;;;;38.13;25.40;;;7.10;95.70;;;;;;4964797;28;20428;-76
2021/05/19 04:19:20;;;;;;;31.98;19.45;;;7.10;95.90;;;;;;4973490;28;20073;-76
2021/05/19 04:21:45;;;;;;;34.63;23.55;;;7.10;95.80;;;;;;4994997;28;20105;-76
2021/05/19 04:24:11;;;;;;;35.90;23.75;;;7.10;95.80;;;;;;4993812;28;20107;-76
2021/05/19 04:26:36;;;;;;;44.58;27.52;;;7.00;95.90;;;;;;4991175;28;20125;-76
2021/05/19 04:29:02;;;;;;;30.13;20.98;;;6.80;95.70;;;;;;4995239;28;20180;-77
2021/05/19 04:31:28;;;;;;;41.35;28.63;;;6.90;96.00;;;;;;4976614;28;20042;-77
2021/05/19 04:33:53;;;;;;;45.60;30.40;;;6.90;96.20;;;;;;4993856;28;20405;-76
2021/05/19 04:36:19;;;;;;;45.20;28.48;;;6.80;96.20;;;;;;4996326;28;20045;-77
2021/05/19 04:38:45;;;;;;;50.38;31.27;;;6.90;96.00;;;;;;4976726;28;20066;-76
2021/05/19 04:41:10;;;;;;;43.67;28.52;;;7.00;96.10;;;;;;4948423;28;20071;-77
2021/05/19 04:43:36;;;;;;;46.80;27.70;;;7.10;95.70;;;;;;4979686;28;20045;-76
2021/05/19 04:46:01;;;;;;;50.47;30.35;;;7.10;95.70;;;;;;4961659;28;20044;-76
2021/05/19 04:48:27;;;;;;;44.60;26.90;;;7.20;95.80;;;;;;4994346;28;20030;-76
2021/05/19 04:50:53;;;;;;;49.08;30.33;;;7.40;95.80;;;;;;4993600;28;20030;-76
2021/05/19 04:53:19;;;;;;;37.03;24.08;;;7.50;95.50;;;;;;4968003;28;20034;-76
2021/05/19 04:55:44;;;;;;;32.05;21.50;;;7.70;95.80;;;;;;4989843;28;20033;-77
2021/05/19 04:58:10;;;;;;;35.75;23.27;;;7.90;94.90;;;;;;4998201;28;20021;-76
2021/05/19 05:00:36;;;;;;;24.77;18.33;;;8.10;95.00;;;;;;4985080;28;20019;-76
2021/05/19 05:03:02;;;;;;;21.48;16.27;;;8.10;95.10;;;;;;4969488;28;20446;-76
2021/05/19 05:05:28;;;;;;;22.33;16.52;;;8.20;94.70;;;;;;4971029;28;20040;-75
2021/05/19 05:07:59;;;;;;;21.48;14.68;;;8.20;94.70;;;;;;4998153;28;20029;-77
2021/05/19 05:10:25;;;;;;;24.92;18.23;;;8.30;94.60;;;;;;4988586;28;20092;-76
2021/05/19 05:12:50;;;;;;;19.75;14.13;;;8.40;94.70;;;;;;4967884;28;20030;-77
2021/05/19 05:15:18;;;;;;;17.00;12.95;;;8.50;95.00;;;;;;4968644;28;20034;-76
2021/05/19 05:17:43;;;;;;;17.65;13.27;;;8.60;95.00;;;;;;4986552;28;20096;-76
2021/05/19 05:20:10;;;;;;;18.08;13.30;;;8.80;95.30;;;;;;4999033;28;20037;-77
2021/05/19 05:22:36;;;;;;;17.02;12.73;;;8.80;95.10;;;;;;4986317;28;20034;-77
2021/05/19 05:25:02;;;;;;;18.00;12.52;;;9.00;95.20;;;;;;4982960;28;20509;-76
2021/05/19 05:27:28;;;;;;;19.02;13.90;;;9.00;95.10;;;;;;4997063;28;20030;-77
2021/05/19 05:29:53;;;;;;;17.67;11.68;;;9.10;95.20;;;;;;4997533;28;20045;-77
2021/05/19 05:32:19;;;;;;;18.25;14.45;;;9.10;95.40;;;;;;4996747;28;20057;-77
2021/05/19 05:34:44;;;;;;;22.75;18.23;;;9.20;95.50;;;;;;4982686;28;20050;-76
2021/05/19 05:37:10;;;;;;;15.07;9.50;;;9.40;95.50;;;;;;4996194;28;20133;-77
2021/05/19 05:39:35;;;;;;;21.90;14.52;;;9.50;95.10;;;;;;4996815;28;20125;-77
2021/05/19 05:42:01;;;;;;;23.75;17.20;;;9.60;95.50;;;;;;4981923;28;20532;-77
2021/05/19 05:44:26;;;;;;;15.68;12.57;;;9.90;95.50;;;;;;4997544;28;20030;-76
2021/05/19 05:46:52;;;;;;;16.92;11.70;;;10.10;94.80;;;;;;4997778;28;20046;-77
2021/05/19 05:49:17;;;;;;;19.38;13.95;;;10.00;94.60;;;;;;4996589;28;20037;-76
2021/05/19 05:51:43;;;;;;;16.80;12.10;;;10.10;94.70;;;;;;4995016;28;20034;-78
2021/05/19 05:54:10;;;;;;;18.38;11.23;;;10.40;94.90;;;;;;4997067;28;20053;-77
2021/05/19 05:56:36;;;;;;;16.55;12.00;;;10.40;94.60;;;;;;4982815;28;20037;-77
2021/05/19 05:59:02;;;;;;;14.80;11.15;;;10.50;94.40;;;;;;4998899;28;20034;-78
2021/05/19 06:01:27;;;;;;;16.73;11.32;;;10.60;94.20;;;;;;4967015;28;20517;-77
2021/05/19 06:03:53;;;;;;;18.58;12.95;;;10.50;94.40;;;;;;4980844;28;20445;-77
2021/05/19 06:06:18;;;;;;;9.88;5.35;;;10.60;94.50;;;;;;4983426;28;20550;-77
2021/05/19 06:08:44;;;;;;;17.17;10.52;;;10.60;94.30;;;;;;4997187;28;20040;-77
2021/05/19 06:11:09;;;;;;;18.58;11.88;;;10.60;94.60;;;;;;4969062;28;20023;-78
2021/05/19 06:13:35;;;;;;;16.65;10.95;;;10.80;94.50;;;;;;4980779;28;20062;-78
2021/05/19 06:16:01;;;;;;;19.52;13.77;;;11.10;94.30;;;;;;4982720;28;20046;-78
2021/05/19 06:18:26;;;;;;;16.88;11.93;;;11.70;95.90;;;;;;4995141;28;20132;-78
2021/05/19 06:20:52;;;;;;;15.75;10.90;;;11.90;94.20;;;;;;4963894;28;20037;-78
2021/05/19 06:23:17;;;;;;;15.63;11.65;;;12.40;94.10;;;;;;4990057;28;20035;-78
2021/05/19 06:25:43;;;;;;;16.85;10.20;;;12.80;94.00;;;;;;4981708;28;20037;-78
2021/05/19 06:28:09;;;;;;;12.68;7.72;;;12.70;93.30;;;;;;4996786;28;20041;-78
2021/05/19 06:30:34;;;;;;;19.05;11.50;;;12.90;92.40;;;;;;4978260;28;20080;-78
2021/05/19 06:33:00;;;;;;;15.45;9.32;;;12.70;93.80;;;;;;4981172;28;20417;-78
2021/05/19 06:35:25;;;;;;;15.57;9.85;;;12.70;92.40;;;;;;4966157;28;20080;-78
2021/05/19 06:37:51;;;;;;;12.80;10.27;;;13.00;94.80;;;;;;4961618;28;20033;-78
2021/05/19 06:40:16;;;;;;;12.70;9.68;;;12.90;93.10;;;;;;4962347;28;20554;-78
2021/05/19 06:42:42;;;;;;;15.50;9.70;;;12.70;92.50;;;;;;4947835;28;20173;-78
2021/05/19 06:45:08;;;;;;;15.27;8.98;;;12.80;92.40;;;;;;4978071;28;20492;-78
2021/05/19 06:47:34;;;;;;;11.63;8.43;;;13.20;94.80;;;;;;4984552;28;20054;-78
2021/05/19 06:50:07;;;;;;;10.97;9.20;;;13.20;93.10;;;;;;4895909;28;10000619;-79
2021/05/19 06:52:33;;;;;;;12.38;9.13;;;13.50;92.60;;;;;;4633410;28;10000149;-78
2021/05/19 06:55:00;;;;;;;16.70;8.77;;;13.40;94.30;;;;;;4996303;28;20045;-79
2021/05/19 06:57:26;;;;;;;10.60;5.25;;;13.60;93.80;;;;;;4963982;28;20365;-79
2021/05/19 06:59:51;;;;;;;11.48;7.50;;;13.70;91.40;;;;;;4966963;28;21960;-79
2021/05/19 07:02:17;;;;;;;11.65;7.25;;;13.30;92.10;;;;;;4963248;28;20050;-78
2021/05/19 07:04:42;;;;;;;13.50;8.07;;;13.20;93.70;;;;;;4998351;28;20063;-79
2021/05/19 07:07:08;;;;;;;16.63;8.23;;;13.50;92.60;;;;;;4970602;28;20031;-79
2021/05/19 07:09:35;;;;;;;7.88;4.10;;;13.30;91.40;;;;;;4967433;28;20394;-79
2021/05/19 07:12:01;;;;;;;9.57;5.50;;;13.30;91.80;;;;;;4997757;28;20025;-79
2021/05/19 07:14:27;;;;;;;12.88;8.45;;;13.70;92.10;;;;;;4993710;28;20117;-79
2021/05/19 07:16:54;;;;;;;12.52;7.30;;;14.30;94.50;;;;;;4973401;28;20117;-79
2021/05/19 07:19:21;;;;;;;15.48;7.38;;;14.00;91.10;;;;;;5007136;28;20160;-79
2021/05/19 07:21:46;;;;;;;13.80;8.45;;;14.20;92.20;;;;;;4960658;28;20031;-79
2021/05/19 07:24:12;;;;;;;10.60;7.90;;;14.30;92.30;;;;;;4975819;28;20046;-79
2021/05/19 07:26:42;;;;;;;9.85;7.15;;;14.80;92.60;;;;;;4993083;28;20523;-79
2021/05/19 07:29:08;;;;;;;15.23;7.80;;;14.90;91.80;;;;;;4991166;28;20124;-79
2021/05/19 07:31:34;;;;;;;12.55;6.60;;;14.60;91.10;;;;;;4992742;28;20458;-79
2021/05/19 07:34:01;;;;;;;8.93;3.17;;;15.00;90.60;;;;;;4962776;28;20042;-79
2021/05/19 07:36:26;;;;;;;10.95;6.57;;;14.40;89.40;;;;;;4996759;28;20041;-79
2021/05/19 07:38:53;;;;;;;11.90;6.72;;;14.10;89.90;;;;;;4977195;28;20037;-79
2021/05/19 07:41:18;;;;;;;9.88;5.32;;;14.60;90.80;;;;;;4977083;28;20042;-79
2021/05/19 07:43:44;;;;;;;13.02;6.22;;;15.00;89.10;;;;;;4978264;28;20036;-80
2021/05/19 07:46:09;;;;;;;11.13;6.53;;;15.20;91.00;;;;;;4990833;28;20038;-80
2021/05/19 07:48:35;;;;;;;10.02;4.35;;;15.60;89.00;;;;;;4976487;28;20268;-80
2021/05/19 07:51:00;;;;;;;9.02;4.05;;;16.10;87.40;;;;;;4962389;28;20027;-79
2021/05/19 07:53:26;;;;;;;7.40;4.68;;;15.70;87.70;;;;;;4976937;28;20113;-80
2021/05/19 07:55:59;;;;;;;9.60;5.20;;;15.90;86.10;;;;;;4962541;28;20084;-80
2021/05/19 07:58:35;;;;;;;8.90;4.20;;;16.30;86.70;;;;;;4979288;28;20069;-80
2021/05/19 08:01:23;;;;;;;10.70;4.03;;;16.10;85.70;;;;;;4993869;28;20033;-80
2021/05/19 08:03:50;;;;;;;6.88;3.75;;;16.40;85.80;;;;;;4981040;28;20431;-80
2021/05/19 08:06:16;;;;;;;10.27;4.70;;;16.60;85.70;;;;;;4995155;28;20034;-80
2021/05/19 08:08:41;;;;;;;10.95;4.15;;;16.60;88.50;;;;;;4979104;28;20037;-80
2021/05/19 08:11:07;;;;;;;7.82;5.03;;;16.40;83.80;;;;;;4977307;28;20613;-79
2021/05/19 08:13:39;;;;;;;10.35;4.70;;;16.00;84.50;;;;;;4966147;28;20052;-79
2021/05/19 08:16:05;;;;;;;6.30;3.40;;;16.80;84.50;;;;;;4975833;28;20058;-78
2021/05/19 08:18:30;;;;;;;6.13;3.58;;;16.90;82.50;;;;;;4996467;28;20038;-77
2021/05/19 08:20:56;;;;;;;12.13;4.00;;;16.30;82.20;;;;;;4976838;28;20027;-78
2021/05/19 08:23:22;;;;;;;8.02;3.28;;;16.60;82.50;;;;;;4972253;28;20660;-78
2021/05/19 08:25:47;;;;;;;7.90;3.80;;;16.90;81.10;;;;;;4997965;28;20043;-78
2021/05/19 08:28:13;;;;;;;8.02;3.75;;;17.50;80.90;;;;;;4991747;28;20104;-78
2021/05/19 08:30:38;;;;;;;6.40;3.45;;;17.20;81.70;;;;;;4983853;28;20030;-78
2021/05/19 08:33:04;;;;;;;5.57;2.97;;;17.10;80.50;;;;;;4970374;28;20065;-78
2021/05/19 08:35:29;;;;;;;11.23;3.72;;;17.30;82.00;;;;;;5001297;28;20046;-78
2021/05/19 08:37:55;;;;;;;8.52;3.40;;;17.50;80.80;;;;;;4967172;28;20038;-78
2021/05/19 08:40:21;;;;;;;6.32;2.97;;;18.20;87.60;;;;;;4998759;28;20504;-78
2021/05/19 08:42:46;;;;;;;7.97;3.42;;;18.50;82.80;;;;;;4984521;28;20041;-78
2021/05/19 08:45:12;;;;;;;6.57;2.60;;;19.30;85.30;;;;;;4982237;28;20030;-78
2021/05/19 08:47:37;;;;;;;5.13;2.97;;;18.90;82.50;;;;;;4983011;28;20053;-78
2021/05/19 08:50:04;;;;;;;7.30;3.05;;;19.20;78.90;;;;;;4983375;28;20037;-78
2021/05/19 08:52:30;;;;;;;8.23;2.55;;;18.30;82.80;;;;;;4984243;28;20038;-78
2021/05/19 08:54:56;;;;;;;5.47;2.60;;;18.30;80.10;;;;;;4983733;28;20658;-78
2021/05/19 08:57:22;;;;;;;7.47;2.88;;;18.40;81.20;;;;;;4999577;28;20038;-78
2021/05/19 08:59:48;;;;;;;9.10;2.60;;;18.20;77.90;;;;;;4981314;28;20125;-78
2021/05/19 09:02:16;;;;;;;8.57;3.05;;;18.60;81.90;;;;;;4984273;28;20133;-78
2021/05/19 09:04:42;;;;;;;7.30;2.20;;;18.70;80.50;;;;;;4997555;28;20182;-78
2021/05/19 09:07:10;;;;;;;6.82;2.50;;;18.50;76.60;;;;;;4965355;28;20063;-78
2021/05/19 09:09:36;;;;;;;10.50;3.28;;;18.00;77.60;;;;;;4989969;28;20085;-78
2021/05/19 09:12:12;;;;;;;7.95;2.92;;;18.30;78.40;;;;;;4996351;28;20092;-79
2021/05/19 09:14:42;;;;;;;;;;;18.90;79.70;;;;;;4982678;28;20065;-79
2021/05/19 09:17:17;;;;;;;8.50;2.08;;;18.90;75.30;;;;;;4996204;28;20056;-79
2021/05/19 09:19:43;;;;;;;4.70;2.92;;;18.70;76.70;;;;;;4995471;28;20069;-79
2021/05/19 09:22:21;;;;;;;4.88;2.35;;;18.10;76.90;;;;;;4994533;28;20027;-79
2021/05/19 09:24:48;;;;;;;5.15;1.55;;;17.60;77.00;;;;;;4987833;28;20030;-78
2021/05/19 09:27:14;;;;;;;3.28;1.83;;;17.30;77.00;;;;;;4995311;28;20039;-79
2021/05/19 09:29:40;;;;;;;9.00;3.25;;;17.50;77.30;;;;;;4982377;28;20382;-79
2021/05/19 09:32:09;;;;;;;3.63;1.98;;;17.60;78.90;;;;;;4997664;28;20037;-79
2021/05/19 09:34:37;;;;;;;7.38;2.58;;;19.10;83.40;;;;;;4970930;28;20045;-79
2021/05/19 09:37:13;;;;;;;10.00;2.17;;;18.90;75.90;;;;;;4996289;28;20164;-79
2021/05/19 09:40:11;;;;;;;4.82;1.80;;;17.90;77.10;;;;;;4998700;28;20042;-79
2021/05/19 09:42:36;;;;;;;7.45;2.00;;;18.90;82.80;;;;;;4997765;28;20446;-79
2021/05/19 09:45:26;;;;;;;5.10;1.70;;;20.10;81.40;;;;;;4997767;28;20050;-78
2021/05/19 09:47:56;;;;;;;5.85;1.40;;;19.60;73.60;;;;;;4978409;28;20041;-79
2021/05/19 09:50:23;;;;;;;7.43;1.58;;;18.80;78.40;;;;;;4964308;28;20390;-79
2021/05/19 09:53:11;;;;;;;3.35;1.33;;;18.20;76.00;;;;;;4977459;28;20055;-80
2021/05/19 09:56:01;;;;;;;9.07;1.42;;;18.40;74.20;;;;;;4995825;28;20100;-79
2021/05/19 09:58:34;;;;;;;4.35;0.88;;;18.30;75.30;;;;;;4985517;28;20077;-80
2021/05/19 10:00:59;;;;;;;7.53;1.73;;;18.40;74.10;;;;;;4993952;28;20109;-79
2021/05/19 10:03:25;;;;;;;6.40;1.52;;;18.50;74.60;;;;;;4977124;28;20500;-79
2021/05/19 10:05:57;;;;;;;5.30;1.42;;;18.10;75.00;;;;;;4994616;28;20124;-79
2021/05/19 10:08:23;;;;;;;5.78;1.50;;;17.80;75.50;;;;;;4993378;28;20034;-79
2021/05/19 10:10:48;;;;;;;4.43;1.85;;;18.70;80.00;;;;;;4994706;28;20042;-79
2021/05/19 10:13:14;;;;;;;3.88;0.93;;;19.40;78.10;;;;;;4995990;28;20030;-79
2021/05/19 10:15:39;;;;;;;5.70;1.48;;;19.40;77.30;;;;;;4979396;28;20046;-79
2021/05/19 10:18:08;;;;;;;5.25;1.38;;;19.10;73.30;;;;;;4993492;28;20041;-80
2021/05/19 10:20:36;;;;;;;6.03;2.10;;;19.10;77.40;;;;;;4997946;28;20047;-79
2021/05/19 10:23:04;;;;;;;3.35;0.70;;;19.50;78.80;;;;;;4980881;28;20080;-79
2021/05/19 10:25:42;;;;;;;3.45;0.82;;;19.60;73.40;;;;;;4993788;28;20031;-80
2021/05/19 10:28:12;;;;;;;3.65;1.10;;;19.30;73.20;;;;;;4994287;28;20563;-82
2021/05/19 10:30:47;;;;;;;3.42;1.38;;;18.60;71.50;;;;;;4983637;28;20034;-80
2021/05/19 10:33:31;;;;;;;6.32;1.83;;;19.20;73.40;;;;;;4980972;28;20045;-81
2021/05/19 10:35:58;;;;;;;4.18;1.20;;;19.60;73.20;;;;;;4992600;28;20033;-80
2021/05/19 10:38:31;;;;;;;3.20;1.20;;;19.10;72.40;;;;;;4979956;28;20034;-81
2021/05/19 10:40:57;;;;;;;2.65;1.00;;;19.70;72.50;;;;;;4992782;28;20493;-81
2021/05/19 10:43:48;;;;;;;4.75;1.15;;;20.00;70.00;;;;;;4980575;28;20038;-81
2021/05/19 10:46:14;;;;;;;3.17;0.88;;;20.30;70.90;;;;;;4981718;28;20506;-80
2021/05/19 10:48:40;;;;;;;3.63;1.20;;;19.80;70.20;;;;;;4968284;28;20081;-81
2021/05/19 10:51:39;;;;;;;8.52;1.30;;;21.00;73.00;;;;;;4993048;28;20037;-81
2021/05/19 11:02:57;;;;;;;3.28;1.10;;;21.80;70.70;;;;;;4990577;28;20038;-82
2021/05/19 11:05:23;;;;;;;;;;;22.00;69.70;;;;;;4993432;28;20046;-82
2021/05/19 11:08:11;;;;;;;2.55;0.73;;;21.30;67.70;;;;;;4993287;28;20439;-81
2021/05/19 11:10:37;;;;;;;4.22;1.08;;;21.70;65.60;;;;;;4996816;28;20026;-82
2021/05/19 11:13:03;;;;;;;3.40;1.40;;;21.40;68.50;;;;;;4998870;28;20036;-82
2021/05/19 11:20:54;;;;;;;5.53;1.10;;;22.10;65.80;;;;;;4994430;28;20058;-82
2021/05/19 11:23:20;;;;;;;5.45;1.05;;;21.90;71.10;;;;;;4993766;28;20193;-82
2021/05/19 11:25:46;;;;;;;3.97;0.93;;;22.00;65.30;;;;;;4979395;28;20030;-82
2021/05/19 11:28:24;;;;;;;3.95;1.00;;;22.40;64.80;;;;;;4993966;28;20492;-82
2021/05/19 11:30:50;;;;;;;0.85;0.82;;;22.60;69.70;;;;;;4979631;28;20034;-81
2021/05/19 11:33:20;;;;;;;2.22;0.70;;;22.10;65.50;;;;;;4977551;28;20085;-81
2021/05/19 11:35:52;;;;;;;7.57;1.50;;;21.80;64.80;;;;;;4854506;28;10001240;-81
2021/05/19 11:38:21;;;;;;;2.10;0.90;;;22.20;67.50;;;;;;4648020;28;10000122;-82
2021/05/19 11:40:51;;;;;;;4.40;1.05;;;22.50;64.90;;;;;;4995512;28;20030;-83
2021/05/19 11:43:19;;;;;;;5.38;1.30;;;22.10;67.60;;;;;;4988278;28;20029;-81
2021/05/19 11:45:44;;;;;;;6.70;1.20;;;22.40;67.80;;;;;;4977798;28;20034;-82
2021/05/19 11:48:20;;;;;;;1.92;0.70;;;22.40;65.50;;;;;;4992409;28;20441;-82
2021/05/19 11:50:46;;;;;;;3.58;0.95;;;21.90;64.00;;;;;;4977226;28;20088;-81
2021/05/19 11:53:13;;;;;;;4.35;1.80;;;22.20;65.40;;;;;;4975651;28;20375;-83
2021/05/19 11:55:42;;;;;;;13.00;2.20;;;22.90;65.30;;;;;;4975567;28;20038;-82
2021/05/19 11:58:21;;;;;;;2.33;1.02;;;23.20;65.80;;;;;;4990506;28;20030;-82
2021/05/19 12:00:46;;;;;;;5.95;1.30;;;23.10;64.90;;;;;;4975966;28;20095;-83
2021/05/19 12:03:13;;;;;;;3.70;1.10;;;23.40;65.10;;;;;;4993131;28;20100;-82
2021/05/19 12:05:43;;;;;;;4.57;1.00;;;23.10;63.90;;;;;;4986289;28;20042;-81
2021/05/19 12:08:08;;;;;;;4.85;2.13;;;23.60;66.20;;;;;;4993600;28;20034;-82
2021/05/19 12:10:34;;;;;;;4.35;1.50;;;24.00;63.40;;;;;;4996232;28;20048;-80
2021/05/19 12:13:03;;;;;;;3.97;1.05;;;24.00;64.00;;;;;;4980366;28;20129;-82
2021/05/19 12:15:30;;;;;;;4.80;1.10;;;23.90;63.70;;;;;;4984252;28;20023;-83
2021/05/19 12:17:59;;;;;;;1.08;0.70;;;23.00;60.20;;;;;;4980264;28;20227;-81
2021/05/19 12:20:26;;;;;;;2.22;0.70;;;22.50;62.10;;;;;;4977132;28;20037;-84
2021/05/19 12:22:56;;;;;;;2.65;0.65;;;22.30;64.00;;;;;;4998985;28;20318;-83
2021/05/19 12:25:21;;;;;;;3.55;1.20;;;21.90;62.70;;;;;;4998363;28;20034;-83
2021/05/19 12:27:51;;;;;;;4.10;1.23;;;21.50;64.10;;;;;;4982310;28;20041;-82
2021/05/19 12:30:18;;;;;;;3.70;0.90;;;21.30;66.70;;;;;;5000072;28;20169;-83
2021/05/19 12:33:04;;;;;;;7.40;1.17;;;20.90;68.80;;;;;;4983868;28;20468;-85
2021/05/19 12:35:30;;;;;;;2.25;0.70;;;20.30;71.20;;;;;;4991471;28;20643;-85
2021/05/19 12:38:01;;;;;;;5.22;0.95;;;20.20;72.40;;;;;;4968475;28;20097;-85
2021/05/19 12:40:29;;;;;;;1.42;0.90;;;20.10;73.60;;;;;;4981552;28;20030;-84
2021/05/19 12:43:00;;;;;;;3.70;0.90;;;20.00;75.80;;;;;;4976818;28;20034;-84
2021/05/19 12:45:31;;;;;;;1.33;0.65;;;20.40;76.20;;;;;;4983578;28;20452;-84
2021/05/19 12:48:04;;;;;;;2.47;0.77;;;20.60;75.60;;;;;;4982293;28;20030;-84
2021/05/19 12:50:47;;;;;;;3.47;0.90;;;20.90;77.20;;;;;;4980759;28;20085;-85
2021/05/19 12:53:35;;;;;;;2.33;0.90;;;21.30;77.50;;;;;;4982128;28;20034;-84
2021/05/19 12:56:11;;;;;;;3.65;0.73;;;21.50;74.90;;;;;;5002274;28;20289;-83